createdAt,value
2018-04-30T21:50:26.158Z,11.10
2018-04-30T21:52:57.590Z,11.10
2018-04-30T21:55:26.689Z,11.00
2018-04-30T21:57:58.539Z,11.00
2018-04-30T22:00:28.540Z,10.90
2018-04-30T22:02:58.365Z,11.00
2018-04-30T22:05:28.345Z,10.90
2018-04-30T22:07:58.839Z,10.80
2018-04-30T22:10:28.013Z,10.80
2018-04-30T22:13:01.428Z,10.70
2018-04-30T22:15:32.013Z,10.70
2018-04-30T22:18:01.468Z,10.60
2018-04-30T22:20:31.098Z,10.70
2018-04-30T22:23:00.307Z,10.70
2018-04-30T22:25:29.366Z,10.60
2018-04-30T22:27:59.608Z,10.60
2018-04-30T22:30:29.095Z,10.50
2018-04-30T22:32:59.437Z,10.60
2018-04-30T22:35:28.565Z,10.50
2018-04-30T22:37:58.823Z,10.40
2018-04-30T22:40:29.179Z,10.30
2018-04-30T22:42:58.742Z,10.20
2018-04-30T22:45:28.564Z,10.20
2018-04-30T22:47:59.454Z,10.20
2018-04-30T22:50:28.713Z,10.10
2018-04-30T22:52:58.744Z,10.20
2018-04-30T22:58:27.256Z,10.20
2018-04-30T23:00:59.242Z,10.20
2018-04-30T23:03:28.915Z,10.10
2018-04-30T23:05:59.025Z,10.10
2018-04-30T23:08:28.893Z,10.20
2018-04-30T23:10:58.531Z,10.10
2018-04-30T23:13:28.613Z,10.20
2018-04-30T23:15:58.582Z,10.10
2018-04-30T23:18:28.521Z,10.10
2018-04-30T23:20:58.002Z,10.10
2018-04-30T23:23:27.256Z,10.10
2018-04-30T23:25:58.935Z,10.10
2018-04-30T23:28:28.881Z,10.00
2018-04-30T23:30:59.067Z,10.00
2018-04-30T23:33:28.289Z,9.90
2018-04-30T23:36:02.099Z,9.80
2018-04-30T23:38:41.007Z,9.80
2018-04-30T23:41:11.459Z,9.80
2018-04-30T23:43:40.709Z,9.80
2018-04-30T23:46:10.159Z,9.80
2018-04-30T23:49:09.837Z,9.80
2018-04-30T23:51:40.527Z,9.80
2018-04-30T23:54:10.476Z,9.80
2018-04-30T23:56:41.005Z,9.70
2018-04-30T23:59:12.746Z,9.70
